createdAt,value
2019-04-30T00:00:18.688Z,20.73
2019-04-30T00:05:25.137Z,21.97
2019-04-30T00:10:36.022Z,21.82
2019-04-30T00:15:35.595Z,23.97
2019-04-30T00:20:38.748Z,23.73
2019-04-30T00:25:41.966Z,24.00
2019-04-30T00:30:47.778Z,23.50
2019-04-30T00:35:55.175Z,23.43
2019-04-30T00:40:57.826Z,24.57
2019-04-30T00:46:01.579Z,23.90
2019-04-30T00:51:07.580Z,24.53
2019-04-30T00:56:10.714Z,25.73
2019-04-30T01:01:21.319Z,25.90
2019-04-30T01:06:28.669Z,26.07
2019-04-30T01:11:30.442Z,27.70
2019-04-30T01:16:33.850Z,25.87
2019-04-30T01:21:40.173Z,28.23
2019-04-30T01:26:42.639Z,31.33
2019-04-30T01:31:46.055Z,29.07
2019-04-30T01:36:52.172Z,30.03
2019-04-30T01:41:54.280Z,29.87
2019-04-30T01:46:58.834Z,29.50
2019-04-30T01:52:02.285Z,29.20
2019-04-30T01:57:19.955Z,29.67
2019-04-30T02:02:25.010Z,28.93
2019-04-30T02:07:28.784Z,29.20
2019-04-30T02:12:32.091Z,27.90
2019-04-30T02:17:35.173Z,27.37
2019-04-30T02:22:38.996Z,27.93
2019-04-30T02:27:42.126Z,26.70
2019-04-30T02:32:45.442Z,26.77
2019-04-30T02:38:02.250Z,25.80
2019-04-30T02:43:06.306Z,27.27
2019-04-30T02:48:11.803Z,25.63
2019-04-30T02:53:50.944Z,26.63
2019-04-30T02:58:54.822Z,27.23
2019-04-30T03:03:59.829Z,27.10
2019-04-30T03:09:04.771Z,27.17
2019-04-30T03:14:10.324Z,27.20
2019-04-30T03:19:30.263Z,27.53
2019-04-30T03:24:34.020Z,26.93
2019-04-30T03:29:40.173Z,28.63
2019-04-30T03:34:43.013Z,28.50
2019-04-30T03:39:49.174Z,28.63
2019-04-30T03:44:51.928Z,28.50
2019-04-30T03:49:55.386Z,29.33
2019-04-30T03:54:59.650Z,29.57
2019-04-30T04:00:05.352Z,30.17
2019-04-30T04:05:10.883Z,33.13
2019-04-30T04:10:24.996Z,31.80
2019-04-30T04:15:29.898Z,34.07
2019-04-30T04:20:33.420Z,35.13
2019-04-30T04:25:39.690Z,34.27
2019-04-30T04:30:43.073Z,37.17
2019-04-30T04:35:49.556Z,37.90
2019-04-30T04:40:51.482Z,39.70
2019-04-30T04:45:54.566Z,39.17
2019-04-30T04:51:09.552Z,40.80
2019-04-30T04:56:11.979Z,38.90
2019-04-30T05:01:15.402Z,40.13
2019-04-30T05:06:21.812Z,40.17
2019-04-30T05:11:23.607Z,40.93
2019-04-30T05:16:28.851Z,39.80
2019-04-30T05:21:41.965Z,40.77
2019-04-30T05:26:38.670Z,40.73
2019-04-30T05:31:42.165Z,40.53
2019-04-30T05:36:45.850Z,40.43
2019-04-30T05:41:49.308Z,40.07
2019-04-30T05:46:52.993Z,37.27
2019-04-30T05:51:56.399Z,36.57
2019-04-30T05:57:00.150Z,35.93
2019-04-30T06:02:03.566Z,35.13
2019-04-30T06:07:08.586Z,35.90
2019-04-30T06:12:13.086Z,33.13
2019-04-30T06:17:21.108Z,34.33
2019-04-30T06:22:25.419Z,30.67
2019-04-30T06:27:29.197Z,32.97
2019-04-30T06:32:32.399Z,29.80
2019-04-30T06:37:36.246Z,31.60
2019-04-30T06:42:39.689Z,31.63
2019-04-30T06:47:42.935Z,31.27
2019-04-30T06:52:56.234Z,29.50
2019-04-30T06:57:50.875Z,31.93
2019-04-30T07:02:54.680Z,30.47
2019-04-30T07:08:09.100Z,30.07
2019-04-30T07:13:15.542Z,29.70
2019-04-30T07:18:19.016Z,28.20
2019-04-30T07:23:22.893Z,27.37
2019-04-30T07:28:41.226Z,25.57
2019-04-30T07:33:31.675Z,26.37
2019-04-30T07:38:35.785Z,25.73
2019-04-30T07:43:40.560Z,24.93
2019-04-30T07:48:44.281Z,24.77
2019-04-30T07:53:49.598Z,24.20
2019-04-30T07:58:53.156Z,23.40
2019-04-30T08:04:00.959Z,21.00
2019-04-30T08:09:10.133Z,20.30
2019-04-30T08:14:11.999Z,22.00
2019-04-30T08:19:15.415Z,21.50
2019-04-30T08:24:19.364Z,23.37
2019-04-30T08:29:22.863Z,21.97
2019-04-30T08:34:26.275Z,17.03
2019-04-30T08:39:31.845Z,19.57
2019-04-30T08:44:35.146Z,18.77
2019-04-30T08:49:40.486Z,17.70
2019-04-30T08:54:43.523Z,16.97
2019-04-30T08:59:46.603Z,18.90
2019-04-30T09:04:51.602Z,17.90
2019-04-30T09:09:55.290Z,17.53
2019-04-30T09:14:59.140Z,16.27
2019-04-30T09:20:02.335Z,16.20
2019-04-30T09:25:06.526Z,15.27
2019-04-30T09:30:10.432Z,13.20
2019-04-30T09:35:14.015Z,15.30
2019-04-30T09:40:20.509Z,13.83
2019-04-30T09:45:22.285Z,13.07
2019-04-30T09:50:26.000Z,13.73
2019-04-30T09:55:29.206Z,14.23
2019-04-30T10:00:33.039Z,13.80
2019-04-30T10:05:36.448Z,15.03
2019-04-30T10:10:44.189Z,14.63
2019-04-30T10:15:50.172Z,15.37
2019-04-30T10:20:53.599Z,14.53
2019-04-30T10:25:56.995Z,12.23
2019-04-30T10:31:00.491Z,11.23
2019-04-30T10:36:03.595Z,12.20
2019-04-30T10:41:08.790Z,11.90
2019-04-30T10:46:12.222Z,12.00
2019-04-30T10:51:15.651Z,12.53
2019-04-30T10:56:19.275Z,13.03
2019-04-30T11:01:22.810Z,11.13
2019-04-30T11:06:26.290Z,10.83
2019-04-30T11:11:30.605Z,11.33
2019-04-30T11:16:34.115Z,10.97
2019-04-30T11:21:37.332Z,9.77
2019-04-30T11:26:41.466Z,10.97
2019-04-30T11:31:47.338Z,9.97
2019-04-30T11:36:51.055Z,10.83
2019-04-30T11:41:54.176Z,9.70
2019-04-30T11:47:00.827Z,10.27
2019-04-30T11:52:04.179Z,16.20
2019-04-30T11:57:08.919Z,14.23
2019-04-30T12:02:23.417Z,11.63
2019-04-30T12:07:34.592Z,18.13
2019-04-30T12:12:38.781Z,17.73
2019-04-30T12:17:41.970Z,15.57
2019-04-30T12:22:45.048Z,16.07
2019-04-30T12:27:48.956Z,16.30
2019-04-30T12:32:52.783Z,16.27
2019-04-30T12:37:56.514Z,17.17
2019-04-30T12:42:59.950Z,15.10
2019-04-30T12:48:05.390Z,16.43
2019-04-30T12:53:19.903Z,15.50
2019-04-30T12:58:23.286Z,15.07
2019-04-30T13:03:28.369Z,14.03
2019-04-30T13:08:32.537Z,15.10
2019-04-30T13:13:36.330Z,15.10
2019-04-30T13:18:40.130Z,12.93
2019-04-30T13:23:43.209Z,7.80
2019-04-30T13:28:54.296Z,7.53
2019-04-30T13:34:15.893Z,7.00
2019-04-30T13:39:23.598Z,6.77
2019-04-30T13:44:29.430Z,6.87
2019-04-30T13:49:32.611Z,7.30
2019-04-30T13:54:35.739Z,5.90
2019-04-30T13:59:39.395Z,6.57
2019-04-30T14:04:47.219Z,6.40
2019-04-30T14:09:52.435Z,6.93
2019-04-30T14:14:56.119Z,7.03
2019-04-30T14:19:59.823Z,7.47
2019-04-30T14:25:03.769Z,8.73
2019-04-30T14:30:09.286Z,8.00
2019-04-30T14:35:12.751Z,8.43
2019-04-30T14:40:17.126Z,7.87
2019-04-30T14:45:23.652Z,8.87
2019-04-30T14:50:29.135Z,8.03
2019-04-30T14:55:43.207Z,7.77
2019-04-30T15:00:51.167Z,7.90
2019-04-30T15:05:54.323Z,7.90
2019-04-30T15:10:57.981Z,8.60
2019-04-30T15:16:01.294Z,8.77
2019-04-30T15:21:04.443Z,9.27
2019-04-30T15:26:08.662Z,8.23
2019-04-30T15:31:12.586Z,8.50
2019-04-30T15:36:15.671Z,8.47
2019-04-30T15:41:19.352Z,9.10
2019-04-30T15:46:23.492Z,8.70
2019-04-30T15:51:26.569Z,8.73
2019-04-30T15:56:37.075Z,8.40
2019-04-30T16:01:37.274Z,9.37
2019-04-30T16:06:40.471Z,9.23
2019-04-30T16:12:01.807Z,8.03
2019-04-30T16:17:06.853Z,8.53
2019-04-30T16:22:10.256Z,8.90
2019-04-30T16:27:13.331Z,8.77
2019-04-30T16:32:17.283Z,7.97
2019-04-30T16:37:20.434Z,8.67
2019-04-30T16:42:23.942Z,8.00
2019-04-30T16:47:29.603Z,7.97
2019-04-30T16:52:32.697Z,8.07
2019-04-30T16:57:35.772Z,8.23
2019-04-30T17:02:41.154Z,8.20
2019-04-30T17:07:50.517Z,8.50
2019-04-30T17:13:01.005Z,8.10
2019-04-30T17:18:04.474Z,7.70
2019-04-30T17:23:09.404Z,7.67
2019-04-30T17:28:12.687Z,8.40
2019-04-30T17:33:15.774Z,7.67
2019-04-30T17:38:19.101Z,7.50
2019-04-30T17:43:24.611Z,7.37
2019-04-30T17:48:29.137Z,17.15
2019-04-30T17:53:34.455Z,17.57
2019-04-30T17:58:37.780Z,20.17
2019-04-30T18:03:41.260Z,19.93
2019-04-30T18:08:44.667Z,21.10
2019-04-30T18:13:48.469Z,20.33
2019-04-30T18:19:01.064Z,19.90
2019-04-30T18:24:05.850Z,20.93
2019-04-30T18:29:08.936Z,20.17
2019-04-30T18:34:12.420Z,22.03
2019-04-30T18:39:18.816Z,21.83
2019-04-30T18:44:21.961Z,21.40
2019-04-30T18:49:25.035Z,23.00
2019-04-30T18:54:29.062Z,21.97
2019-04-30T18:59:32.783Z,21.50
2019-04-30T19:04:38.353Z,23.87
2019-04-30T19:09:42.415Z,23.47
2019-04-30T19:14:55.948Z,25.43
2019-04-30T19:20:13.108Z,24.77
2019-04-30T19:25:16.198Z,26.00
2019-04-30T19:30:19.445Z,25.40
2019-04-30T19:35:22.873Z,25.27
2019-04-30T19:40:26.307Z,24.53
2019-04-30T19:45:30.071Z,26.10
2019-04-30T19:50:33.502Z,25.93
2019-04-30T19:55:36.661Z,25.60
2019-04-30T20:00:40.062Z,26.20
2019-04-30T20:05:43.478Z,26.57
2019-04-30T20:10:47.180Z,26.67
2019-04-30T20:15:50.639Z,27.90
2019-04-30T20:20:55.754Z,27.13
2019-04-30T20:25:59.182Z,27.80
2019-04-30T20:31:02.366Z,27.13
2019-04-30T20:36:05.454Z,28.07
2019-04-30T20:41:10.424Z,27.83
2019-04-30T20:46:13.854Z,27.83
2019-04-30T20:51:17.198Z,30.43
2019-04-30T20:56:20.623Z,28.80
2019-04-30T21:01:24.034Z,29.63
2019-04-30T21:06:27.130Z,30.90
2019-04-30T21:11:30.534Z,31.67
2019-04-30T21:16:33.862Z,31.13
2019-04-30T21:21:38.698Z,31.00
2019-04-30T21:26:42.599Z,32.00
2019-04-30T21:31:53.647Z,31.93
2019-04-30T21:36:56.807Z,32.07
2019-04-30T21:42:00.471Z,32.77
2019-04-30T21:47:03.766Z,31.80
2019-04-30T21:52:07.120Z,31.40
2019-04-30T21:57:10.431Z,34.50
2019-04-30T22:02:14.146Z,33.23
2019-04-30T22:07:19.363Z,34.67
2019-04-30T22:12:22.430Z,33.13
2019-04-30T22:17:25.755Z,35.27
2019-04-30T22:22:29.219Z,34.53
2019-04-30T22:27:32.403Z,35.53
2019-04-30T22:32:35.810Z,34.63
2019-04-30T22:38:22.076Z,35.60
2019-04-30T22:43:26.847Z,35.53
2019-04-30T22:48:31.488Z,34.77
2019-04-30T22:53:35.699Z,34.77
2019-04-30T22:58:39.867Z,34.30
2019-04-30T23:03:44.704Z,33.60
2019-04-30T23:08:48.900Z,34.37
2019-04-30T23:13:53.019Z,34.33
2019-04-30T23:18:57.225Z,33.03
2019-04-30T23:24:01.520Z,35.00
2019-04-30T23:29:07.450Z,32.67
2019-04-30T23:34:17.700Z,35.07
2019-04-30T23:39:17.731Z,35.33
2019-04-30T23:44:21.983Z,35.33
2019-04-30T23:49:26.182Z,34.83
2019-04-30T23:54:30.767Z,35.30
2019-04-30T23:59:34.995Z,36.20
